Time;durP1;ratioP1;P1;durP2;ratioP2;P2;SDS_P1;SDS_P2;PMS_P1;PMS_P2;Temp;Humidity;BMP_temperature;BMP_pressure;BME280_temperature;BME280_humidity;BME280_pressure;Samples;Min_cycle;Max_cycle;Signal;HPM_P1;HPM_P2
2022/01/05 00:01:14;;;;;;;81.72;50.58;;;;;;;;;;5031597;28;20500;-75
2022/01/05 00:03:42;;;;;;;80.78;50.72;;;;;;;;;;5031580;28;20033;-75
2022/01/05 00:06:14;;;;;;;84.38;50.80;;;;;;;;;;5036415;28;20460;-75
2022/01/05 00:08:43;;;;;;;83.20;48.90;;;;;;;;;;5035199;28;20136;-75
2022/01/05 00:11:12;;;;;;;77.03;46.53;;;;;;;;;;5036514;28;20128;-75
2022/01/05 00:13:43;;;;;;;77.03;46.92;;;;;;;;;;5036516;28;20120;-75
2022/01/05 00:16:13;;;;;;;77.65;46.53;;;;;;;;;;5035188;28;20080;-75
2022/01/05 00:18:41;;;;;;;71.65;45.53;;;;;;;;;;5036600;28;20129;-74
2022/01/05 00:21:11;;;;;;;80.97;47.67;;;;;;;;;;5036473;28;20038;-75
2022/01/05 00:23:39;;;;;;;81.88;48.58;;;;;;;;;;5036975;28;20132;-75
2022/01/05 00:26:08;;;;;;;78.32;48.22;;;;;;;;;;5035083;28;20049;-75
2022/01/05 00:28:41;;;;;;;70.43;45.22;;;;;;;;;;5036648;28;20108;-75
2022/01/05 00:31:10;;;;;;;79.75;46.15;;;;;;;;;;5036554;28;20120;-75
2022/01/05 00:33:40;;;;;;;78.07;45.95;;;;;;;;;;5036129;28;20065;-75
2022/01/05 00:36:14;;;;;;;77.85;47.42;;;;;;;;;;5036323;28;20069;-75
2022/01/05 00:38:45;;;;;;;72.35;44.70;;;;;;;;;;5036064;28;20050;-74
2022/01/05 00:41:14;;;;;;;73.57;43.88;;;;;;;;;;5036329;28;20080;-75
2022/01/05 00:43:56;;;;;;;69.28;43.97;;;;;;;;;;5036442;28;20116;-75
2022/01/05 00:46:26;;;;;;;72.63;43.53;;;;;;;;;;5034666;28;20077;-75
2022/01/05 00:48:56;;;;;;;76.38;45.20;;;;;;;;;;5034535;28;20095;-75
2022/01/05 00:51:27;;;;;;;70.25;42.55;;;;;;;;;;5035911;28;20120;-75
2022/01/05 00:53:55;;;;;;;69.55;42.88;;;;;;;;;;5038523;28;20132;-75
2022/01/05 00:56:22;;;;;;;73.10;43.30;;;;;;;;;;5035275;28;20416;-75
2022/01/05 00:58:56;;;;;;;64.82;40.72;;;;;;;;;;5036317;28;20052;-75
2022/01/05 01:01:30;;;;;;;62.80;39.38;;;;;;;;;;5035692;28;20141;-75
2022/01/05 01:03:58;;;;;;;67.20;40.13;;;;;;;;;;5034862;28;20041;-75
2022/01/05 01:06:51;;;;;;;62.53;37.97;;;;;;;;;;5035816;28;20514;-75
2022/01/05 01:09:20;;;;;;;65.80;39.28;;;;;;;;;;5034280;28;20042;-75
2022/01/05 01:11:53;;;;;;;68.25;39.33;;;;;;;;;;5067681;28;20103;-75
2022/01/05 01:14:21;;;;;;;61.40;36.85;;;;;;;;;;5034348;28;20566;-75
2022/01/05 01:16:50;;;;;;;65.63;37.90;;;;;;;;;;5032763;28;20415;-75
2022/01/05 01:19:22;;;;;;;60.83;37.22;;;;;;;;;;5035808;28;20484;-75
2022/01/05 01:21:57;;;;;;;58.40;36.13;;;;;;;;;;5035271;28;20129;-75
2022/01/05 01:24:25;;;;;;;61.75;37.92;;;;;;;;;;5035535;28;20429;-75
2022/01/05 01:26:54;;;;;;;60.95;35.80;;;;;;;;;;5033948;28;20041;-75
2022/01/05 01:29:25;;;;;;;58.42;36.28;;;;;;;;;;5033946;28;20435;-75
2022/01/05 01:31:53;;;;;;;61.40;37.53;;;;;;;;;;5033885;28;20041;-75
2022/01/05 01:34:23;;;;;;;64.53;39.58;;;;;;;;;;5033543;28;20072;-75
2022/01/05 01:36:53;;;;;;;71.30;41.25;;;;;;;;;;5035209;28;20069;-75
2022/01/05 01:39:21;;;;;;;55.65;32.53;;;;;;;;;;5033690;28;20049;-75
2022/01/05 01:41:51;;;;;;;49.75;31.77;;;;;;;;;;5033585;28;20408;-75
2022/01/05 01:44:23;;;;;;;53.92;32.78;;;;;;;;;;5035186;28;20402;-75
2022/01/05 01:46:51;;;;;;;54.03;33.63;;;;;;;;;;5034752;28;20045;-75
2022/01/05 01:49:24;;;;;;;57.00;34.80;;;;;;;;;;5034857;28;20045;-75
2022/01/05 01:51:55;;;;;;;58.30;33.83;;;;;;;;;;5034032;28;20077;-75
2022/01/05 01:54:23;;;;;;;60.63;35.13;;;;;;;;;;5034786;28;20117;-75
2022/01/05 01:57:00;;;;;;;57.88;33.58;;;;;;;;;;5034735;28;20543;-75
2022/01/05 01:59:52;;;;;;;57.60;33.25;;;;;;;;;;5066877;28;20136;-74
2022/01/05 02:02:25;;;;;;;53.70;32.42;;;;;;;;;;5066676;28;20053;-75
2022/01/05 02:05:01;;;;;;;50.42;30.65;;;;;;;;;;5033273;28;20132;-74
2022/01/05 02:07:32;;;;;;;49.78;31.65;;;;;;;;;;5034458;28;20049;-75
2022/01/05 02:10:14;;;;;;;46.00;29.73;;;;;;;;;;5034682;28;20044;-76
2022/01/05 02:13:07;;;;;;;48.28;29.30;;;;;;;;;;5033133;28;20124;-75
2022/01/05 02:15:41;;;;;;;50.42;30.10;;;;;;;;;;5033023;28;20411;-75
2022/01/05 02:21:03;;;;;;;56.75;32.13;;;;;;;;;;5032849;28;20045;-74
2022/01/05 02:23:31;;;;;;;54.15;31.13;;;;;;;;;;5033367;28;20484;-74
2022/01/05 02:26:01;;;;;;;59.08;32.95;;;;;;;;;;5032895;28;20041;-75
2022/01/05 02:28:29;;;;;;;57.33;33.45;;;;;;;;;;5032552;28;20136;-75
2022/01/05 02:30:57;;;;;;;55.38;33.15;;;;;;;;;;5032698;28;20041;-75
2022/01/05 02:33:28;;;;;;;55.10;31.27;;;;;;;;;;5032882;28;20041;-75
2022/01/05 02:35:56;;;;;;;52.72;32.35;;;;;;;;;;5034468;28;20045;-75
2022/01/05 02:38:30;;;;;;;53.17;31.58;;;;;;;;;;5034375;28;20037;-75
2022/01/05 02:41:07;;;;;;;48.47;30.40;;;;;;;;;;5034108;28;20448;-75
2022/01/05 02:43:39;;;;;;;49.63;30.05;;;;;;;;;;5032487;28;20072;-75
2022/01/05 02:46:15;;;;;;;50.42;30.05;;;;;;;;;;5065626;28;20492;-74
2022/01/05 02:48:49;;;;;;;48.38;29.73;;;;;;;;;;5034437;28;20044;-75
2022/01/05 02:51:23;;;;;;;53.28;32.15;;;;;;;;;;5032581;28;20557;-75
2022/01/05 02:53:52;;;;;;;49.95;31.00;;;;;;;;;;5033862;28;20085;-74
2022/01/05 02:56:20;;;;;;;55.15;31.95;;;;;;;;;;5033200;28;20447;-75
2022/01/05 02:59:13;;;;;;;60.35;35.95;;;;;;;;;;5034147;28;20049;-75
2022/01/05 03:02:06;;;;;;;68.22;40.63;;;;;;;;;;5032522;28;20041;-75
2022/01/05 03:04:34;;;;;;;56.90;36.58;;;;;;;;;;5033914;28;20076;-75
2022/01/05 03:07:26;;;;;;;62.22;36.75;;;;;;;;;;5066386;28;20043;-75
2022/01/05 03:13:30;;;;;;;54.35;34.47;;;;;;;;;;5032378;28;20488;-74
2022/01/05 03:16:00;;;;;;;60.13;35.97;;;;;;;;;;5032675;28;20045;-74
2022/01/05 03:18:53;;;;;;;57.42;36.17;;;;;;;;;;5032116;28;20427;-75
2022/01/05 03:21:25;;;;;;;55.67;34.50;;;;;;;;;;5033510;28;20049;-74
2022/01/05 03:24:09;;;;;;;54.78;33.50;;;;;;;;;;5065857;28;20049;-75
2022/01/05 03:26:37;;;;;;;51.88;32.78;;;;;;;;;;5032329;28;20100;-75
2022/01/05 03:29:16;;;;;;;47.17;29.38;;;;;;;;;;5031515;28;20044;-74
2022/01/05 03:32:08;;;;;;;45.40;29.45;;;;;;;;;;5033059;28;20084;-75
2022/01/05 03:35:01;;;;;;;46.60;28.10;;;;;;;;;;5031946;28;20140;-75
2022/01/05 03:37:30;;;;;;;47.95;28.58;;;;;;;;;;5065455;28;20484;-75
2022/01/05 03:39:57;;;;;;;48.05;27.17;;;;;;;;;;5034820;28;20116;-74
2022/01/05 03:42:52;;;;;;;41.42;25.98;;;;;;;;;;5069495;28;20080;-75
2022/01/05 03:45:20;;;;;;;45.20;26.10;;;;;;;;;;5037520;28;20061;-75
2022/01/05 03:48:13;;;;;;;41.92;25.70;;;;;;;;;;5019699;28;20136;-75
2022/01/05 03:51:06;;;;;;;46.00;27.98;;;;;;;;;;5035118;28;20050;-75
2022/01/05 03:53:59;;;;;;;49.72;28.17;;;;;;;;;;5035957;28;20145;-75
2022/01/05 03:56:27;;;;;;;42.38;27.00;;;;;;;;;;5035196;28;20064;-75
2022/01/05 03:58:57;;;;;;;52.75;30.45;;;;;;;;;;5035407;28;20511;-75
2022/01/05 04:01:25;;;;;;;50.80;29.45;;;;;;;;;;5037194;28;20074;-75
2022/01/05 04:03:55;;;;;;;53.80;29.08;;;;;;;;;;5036935;28;20033;-75
2022/01/05 04:06:24;;;;;;;52.25;31.50;;;;;;;;;;5037271;28;20096;-75
2022/01/05 04:08:55;;;;;;;49.42;29.77;;;;;;;;;;5068452;28;20567;-75
2022/01/05 04:11:25;;;;;;;53.17;30.90;;;;;;;;;;5035365;28;20128;-75
2022/01/05 04:13:58;;;;;;;64.50;35.67;;;;;;;;;;5035660;28;20037;-75
2022/01/05 04:16:26;;;;;;;54.75;31.02;;;;;;;;;;5035398;28;20128;-75
2022/01/05 04:18:55;;;;;;;53.50;31.17;;;;;;;;;;5036392;28;20046;-75
2022/01/05 04:21:28;;;;;;;55.80;33.17;;;;;;;;;;5036508;28;20401;-75
2022/01/05 04:23:55;;;;;;;65.30;35.22;;;;;;;;;;5036854;28;20041;-75
2022/01/05 04:26:23;;;;;;;62.60;34.38;;;;;;;;;;5035974;28;20041;-75
2022/01/05 04:28:56;;;;;;;60.35;33.03;;;;;;;;;;5034728;28;20085;-75
2022/01/05 04:31:24;;;;;;;59.33;32.40;;;;;;;;;;5036715;28;20061;-75
2022/01/05 04:33:56;;;;;;;49.42;27.70;;;;;;;;;;5035934;28;20041;-75
2022/01/05 04:36:44;;;;;;;54.75;25.08;;;;;;;;;;5036470;28;20396;-75
2022/01/05 04:39:16;;;;;;;51.88;27.73;;;;;;;;;;5034557;28;20072;-75
2022/01/05 04:41:46;;;;;;;56.65;27.98;;;;;;;;;;5034865;28;20140;-75
2022/01/05 04:44:16;;;;;;;56.35;29.27;;;;;;;;;;5034629;28;20048;-75
2022/01/05 04:46:47;;;;;;;61.03;29.38;;;;;;;;;;5036382;28;20069;-75
2022/01/05 04:49:17;;;;;;;63.75;28.85;;;;;;;;;;5034771;28;20041;-75
2022/01/05 04:51:47;;;;;;;40.55;22.60;;;;;;;;;;5035651;28;20041;-75
2022/01/05 04:54:14;;;;;;;45.13;24.33;;;;;;;;;;5063327;28;20132;-75
2022/01/05 04:56:43;;;;;;;39.22;21.98;;;;;;;;;;5047895;28;20060;-75
2022/01/05 04:59:15;;;;;;;38.67;22.40;;;;;;;;;;5016066;28;20164;-75
2022/01/05 05:01:43;;;;;;;41.00;21.75;;;;;;;;;;5031055;28;20066;-75
2022/01/05 05:04:16;;;;;;;41.30;23.42;;;;;;;;;;5014823;28;20045;-76
2022/01/05 05:06:49;;;;;;;37.97;21.27;;;;;;;;;;5014454;28;20519;-75
2022/01/05 05:09:20;;;;;;;36.58;21.73;;;;;;;;;;5015859;28;20121;-76
2022/01/05 05:11:49;;;;;;;38.00;22.70;;;;;;;;;;5015927;28;20038;-75
2022/01/05 05:14:27;;;;;;;39.15;23.30;;;;;;;;;;5015829;28;20034;-75
2022/01/05 05:16:55;;;;;;;45.25;25.60;;;;;;;;;;5015513;28;20050;-75
2022/01/05 05:19:26;;;;;;;45.30;23.83;;;;;;;;;;5014411;28;20038;-75
2022/01/05 05:21:59;;;;;;;42.70;25.23;;;;;;;;;;5047474;28;20038;-75
2022/01/05 05:24:26;;;;;;;52.10;26.42;;;;;;;;;;5015490;28;20046;-75
2022/01/05 05:26:57;;;;;;;51.80;28.00;;;;;;;;;;5014288;28;20056;-75
2022/01/05 05:29:32;;;;;;;47.28;27.85;;;;;;;;;;5015462;28;20125;-75
2022/01/05 05:32:00;;;;;;;48.30;27.63;;;;;;;;;;5014110;28;20129;-74
2022/01/05 05:34:29;;;;;;;45.53;27.60;;;;;;;;;;5015237;28;20041;-75
2022/01/05 05:37:22;;;;;;;52.63;27.60;;;;;;;;;;5047119;28;20077;-75
2022/01/05 05:39:54;;;;;;;53.13;28.58;;;;;;;;;;5015446;28;20141;-75
2022/01/05 05:42:28;;;;;;;55.70;29.58;;;;;;;;;;5015444;28;20456;-75
2022/01/05 05:44:59;;;;;;;52.27;28.03;;;;;;;;;;5014086;28;20125;-75
2022/01/05 05:47:30;;;;;;;44.28;27.23;;;;;;;;;;5046873;28;20132;-75
2022/01/05 05:50:01;;;;;;;46.67;27.42;;;;;;;;;;5013918;28;20132;-75
2022/01/05 05:52:31;;;;;;;48.67;28.20;;;;;;;;;;5046996;28;20048;-75
2022/01/05 05:55:01;;;;;;;48.42;25.40;;;;;;;;;;5046646;28;20042;-75
2022/01/05 05:57:43;;;;;;;57.65;27.88;;;;;;;;;;5014582;28;20140;-75
2022/01/05 06:00:12;;;;;;;54.40;29.35;;;;;;;;;;5018167;28;20046;-74
2022/01/05 06:02:42;;;;;;;54.53;28.48;;;;;;;;;;5047450;28;20487;-78
2022/01/05 06:05:12;;;;;;;58.85;29.20;;;;;;;;;;5054531;28;20040;-75
2022/01/05 06:07:40;;;;;;;60.38;30.38;;;;;;;;;;5054647;28;20048;-75
2022/01/05 06:10:08;;;;;;;59.85;29.00;;;;;;;;;;5054783;28;20065;-75
2022/01/05 06:12:37;;;;;;;58.67;29.58;;;;;;;;;;5054017;28;20033;-75
2022/01/05 06:15:06;;;;;;;56.88;30.55;;;;;;;;;;5054396;28;20041;-75
2022/01/05 06:17:34;;;;;;;55.85;30.50;;;;;;;;;;5052924;28;20099;-75
2022/01/05 06:20:09;;;;;;;58.08;29.98;;;;;;;;;;5054200;28;20487;-75
2022/01/05 06:22:40;;;;;;;60.25;31.98;;;;;;;;;;5054471;28;20048;-75
2022/01/05 06:25:11;;;;;;;60.60;31.85;;;;;;;;;;5052334;28;20048;-75
2022/01/05 06:27:57;;;;;;;59.45;33.05;;;;;;;;;;5052738;28;20045;-75
2022/01/05 06:30:24;;;;;;;58.25;32.55;;;;;;;;;;5052207;28;20554;-75
2022/01/05 06:33:09;;;;;;;62.40;32.53;;;;;;;;;;5052696;28;20131;-75
2022/01/05 06:35:38;;;;;;;65.60;36.38;;;;;;;;;;5053021;28;20068;-75
2022/01/05 06:38:08;;;;;;;63.50;35.55;;;;;;;;;;5052613;28;20491;-75
2022/01/05 06:40:40;;;;;;;60.58;34.25;;;;;;;;;;5052384;28;20094;-75
2022/01/05 06:43:08;;;;;;;63.70;33.88;;;;;;;;;;5052306;28;20051;-75
2022/01/05 06:45:40;;;;;;;65.90;34.72;;;;;;;;;;5053786;28;20048;-75
2022/01/05 06:48:08;;;;;;;72.90;37.10;;;;;;;;;;5053725;28;20124;-75
2022/01/05 06:50:37;;;;;;;107.28;48.42;;;;;;;;;;5052146;28;20041;-75
2022/01/05 06:53:06;;;;;;;100.88;47.30;;;;;;;;;;5053695;28;20127;-77
2022/01/05 06:55:37;;;;;;;114.57;55.75;;;;;;;;;;5053396;28;20543;-76
2022/01/05 06:58:05;;;;;;;132.63;63.38;;;;;;;;;;5032540;28;20484;-76
2022/01/05 07:03:41;;;;;;;112.78;57.35;;;;;;;;;;5033397;28;20099;-76
2022/01/05 07:06:23;;;;;;;115.20;57.92;;;;;;;;;;5031181;28;20041;-75
2022/01/05 07:08:51;;;;;;;96.57;52.95;;;;;;;;;;5032244;28;20451;-75
2022/01/05 07:11:19;;;;;;;89.80;51.47;;;;;;;;;;5033110;28;20045;-75
2022/01/05 07:14:12;;;;;;;86.60;49.20;;;;;;;;;;5033026;28;20044;-75
2022/01/05 07:16:40;;;;;;;85.65;45.42;;;;;;;;;;5031933;28;20437;-74
2022/01/05 07:19:08;;;;;;;88.35;47.05;;;;;;;;;;5033405;28;20041;-75
2022/01/05 07:21:40;;;;;;;121.88;74.78;;;;;;;;;;5033603;28;20050;-74
2022/01/05 07:24:33;;;;;;;103.68;58.03;;;;;;;;;;5031993;28;20120;-75
2022/01/05 07:30:15;;;;;;;132.73;71.70;;;;;;;;;;5033177;28;20080;-74
2022/01/05 07:33:26;;;;;;;126.43;74.28;;;;;;;;;;5032736;28;20063;-74
2022/01/05 07:36:19;;;;;;;118.72;68.60;;;;;;;;;;5034039;28;20069;-75
2022/01/05 07:38:50;;;;;;;116.93;67.40;;;;;;;;;;5031896;28;20111;-75
2022/01/05 07:41:20;;;;;;;115.35;66.80;;;;;;;;;;5033433;28;20048;-74
2022/01/05 07:43:49;;;;;;;110.95;60.50;;;;;;;;;;5031541;28;20068;-75
2022/01/05 07:46:23;;;;;;;105.40;58.50;;;;;;;;;;5032649;28;20056;-75
2022/01/05 07:49:16;;;;;;;102.22;55.67;;;;;;;;;;5032813;28;20557;-75
2022/01/05 07:52:09;;;;;;;88.78;53.13;;;;;;;;;;5032697;28;20045;-75
2022/01/05 07:54:37;;;;;;;83.43;48.70;;;;;;;;;;5031441;28;20065;-75
2022/01/05 07:57:31;;;;;;;71.85;40.20;;;;;;;;;;5043568;28;20053;-74
2022/01/05 08:00:04;;;;;;;57.00;34.33;;;;;;;;;;5052937;28;20041;-74
2022/01/05 08:02:32;;;;;;;57.67;34.97;;;;;;;;;;5051924;28;20049;-75
2022/01/05 08:05:04;;;;;;;42.63;25.73;;;;;;;;;;5052912;28;20420;-75
2022/01/05 08:07:36;;;;;;;41.92;26.02;;;;;;;;;;5052870;28;20080;-75
2022/01/05 08:10:06;;;;;;;44.33;26.13;;;;;;;;;;5052823;28;20079;-75
2022/01/05 08:12:34;;;;;;;35.28;22.63;;;;;;;;;;5052603;28;20033;-74
2022/01/05 08:15:06;;;;;;;28.05;19.20;;;;;;;;;;5035107;28;20056;-73
2022/01/05 08:17:36;;;;;;;32.92;21.05;;;;;;;;;;5053198;28;20069;-74
2022/01/05 08:20:06;;;;;;;28.58;20.35;;;;;;;;;;5052631;28;20064;-72
2022/01/05 08:22:40;;;;;;;47.40;26.75;;;;;;;;;;5034862;28;20128;-75
2022/01/05 08:25:09;;;;;;;48.97;27.55;;;;;;;;;;5053347;28;20614;-75
2022/01/05 08:28:01;;;;;;;33.38;20.90;;;;;;;;;;5055051;28;20492;-74
2022/01/05 08:30:54;;;;;;;34.10;20.13;;;;;;;;;;5056943;28;20126;-74
2022/01/05 08:33:22;;;;;;;33.05;20.25;;;;;;;;;;5056147;28;20033;-73
2022/01/05 08:39:02;;;;;;;31.33;18.80;;;;;;;;;;5054916;28;20080;-74
2022/01/05 08:41:34;;;;;;;30.23;17.73;;;;;;;;;;5054691;28;20041;-74
2022/01/05 08:44:08;;;;;;;28.25;17.33;;;;;;;;;;5054708;28;20504;-74
2022/01/05 08:46:39;;;;;;;26.40;15.77;;;;;;;;;;5056156;28;20045;-74
2022/01/05 08:49:06;;;;;;;22.92;14.73;;;;;;;;;;5054890;28;20045;-73
2022/01/05 08:51:59;;;;;;;24.15;14.75;;;;;;;;;;5054348;28;20041;-74
2022/01/05 08:54:52;;;;;;;24.40;15.48;;;;;;;;;;5054917;28;20041;-73
2022/01/05 08:57:24;;;;;;;31.10;22.15;;;;;;;;;;5056041;28;20114;-73
2022/01/05 08:59:54;;;;;;;33.22;20.92;;;;;;;;;;5054495;28;20041;-73
2022/01/05 09:02:28;;;;;;;25.85;16.75;;;;;;;;;;5054746;28;20045;-73
2022/01/05 09:04:56;;;;;;;23.10;13.10;;;;;;;;;;5056094;28;20472;-73
2022/01/05 09:10:29;;;;;;;21.35;12.00;;;;;;;;;;5054473;28;20451;-73
2022/01/05 09:12:59;;;;;;;19.67;11.20;;;;;;;;;;5055419;28;20419;-73
2022/01/05 09:15:28;;;;;;;18.20;10.82;;;;;;;;;;5055466;28;20094;-73
2022/01/05 09:18:01;;;;;;;20.75;11.18;;;;;;;;;;5054260;28;20045;-74
2022/01/05 09:20:29;;;;;;;17.88;11.25;;;;;;;;;;5055794;28;20091;-73
2022/01/05 09:26:10;;;;;;;17.92;10.75;;;;;;;;;;5055288;28;20120;-73
2022/01/05 09:28:43;;;;;;;17.23;10.70;;;;;;;;;;5054621;28;20056;-74
2022/01/05 09:31:16;;;;;;;19.80;10.85;;;;;;;;;;5053878;28;20044;-73
2022/01/05 09:33:44;;;;;;;14.20;10.15;;;;;;;;;;5053966;28;20151;-73
2022/01/05 09:36:22;;;;;;;15.27;10.30;;;;;;;;;;5054967;28;20055;-73
2022/01/05 09:42:00;;;;;;;;;;;;;;;;;;5055905;28;20041;-73
2022/01/05 09:44:33;;;;;;;15.55;10.02;;;;;;;;;;5054904;28;19928;-73
2022/01/05 09:47:23;;;;;;;13.30;9.50;;;;;;;;;;5055041;28;20047;-73
2022/01/05 09:50:05;;;;;;;16.05;8.63;;;;;;;;;;5053852;28;20045;-73
2022/01/05 09:52:40;;;;;;;14.48;8.70;;;;;;;;;;5055604;28;20441;-73
2022/01/05 09:55:11;;;;;;;15.02;8.77;;;;;;;;;;5055216;28;20032;-74
2022/01/05 09:57:39;;;;;;;13.40;9.00;;;;;;;;;;5054473;28;20053;-74
2022/01/05 10:00:11;;;;;;;14.43;8.85;;;;;;;;;;5054552;28;20501;-74
2022/01/05 10:03:07;;;;;;;24.83;11.38;;;;;;;;;;5053625;28;20056;-74
2022/01/05 10:05:37;;;;;;;15.10;9.30;;;;;;;;;;5054820;28;20045;-74
2022/01/05 10:08:05;;;;;;;13.80;8.52;;;;;;;;;;5052873;28;20138;-73
2022/01/05 10:10:34;;;;;;;16.27;8.60;;;;;;;;;;5054383;28;20040;-74
2022/01/05 10:13:27;;;;;;;15.27;9.27;;;;;;;;;;5013262;28;20046;-73
2022/01/05 10:16:01;;;;;;;13.13;7.93;;;;;;;;;;5046587;28;20092;-73
2022/01/05 10:18:38;;;;;;;18.05;8.80;;;;;;;;;;5014963;28;20040;-73
2022/01/05 10:21:08;;;;;;;14.75;8.55;;;;;;;;;;5014619;28;20098;-73
2022/01/05 10:23:51;;;;;;;15.90;10.52;;;;;;;;;;5013718;28;20612;-73
2022/01/05 10:26:26;;;;;;;14.38;8.90;;;;;;;;;;5014680;28;20037;-73
2022/01/05 10:28:59;;;;;;;13.93;8.52;;;;;;;;;;5014392;28;20465;-75
2022/01/05 10:31:30;;;;;;;15.80;8.68;;;;;;;;;;5021777;28;20087;-76
2022/01/05 10:34:13;;;;;;;12.60;8.85;;;;;;;;;;5032812;28;20132;-75
2022/01/05 10:36:45;;;;;;;14.30;8.60;;;;;;;;;;5039326;28;20091;-75
2022/01/05 10:39:20;;;;;;;13.30;8.57;;;;;;;;;;5051625;28;20033;-75
2022/01/05 10:41:48;;;;;;;15.00;9.10;;;;;;;;;;5053926;28;20051;-78
2022/01/05 10:44:41;;;;;;;14.25;9.02;;;;;;;;;;5053801;28;20495;-76
2022/01/05 10:47:15;;;;;;;17.55;9.82;;;;;;;;;;5053890;28;20033;-75
2022/01/05 10:49:49;;;;;;;17.67;9.25;;;;;;;;;;5053524;28;20072;-75
2022/01/05 10:52:34;;;;;;;14.33;8.83;;;;;;;;;;5053295;28;20136;-74
2022/01/05 10:55:16;;;;;;;14.95;10.27;;;;;;;;;;5035980;28;20128;-73
2022/01/05 10:57:58;;;;;;;15.88;10.32;;;;;;;;;;5052129;28;20056;-76
2022/01/05 11:00:32;;;;;;;14.50;10.35;;;;;;;;;;5050395;28;20456;-75
2022/01/05 11:06:17;;;;;;;16.13;10.38;;;;;;;;;;5052281;28;20100;-76
2022/01/05 11:12:11;;;;;;;14.27;9.70;;;;;;;;;;5032158;28;20045;-76
2022/01/05 11:14:41;;;;;;;16.25;9.15;;;;;;;;;;5031852;28;20091;-80
2022/01/05 11:17:34;;;;;;;12.73;8.77;;;;;;;;;;5033551;28;20091;-81
2022/01/05 11:20:11;;;;;;;13.98;9.40;;;;;;;;;;5033503;28;20045;-81
2022/01/05 11:22:43;;;;;;;14.57;9.38;;;;;;;;;;5031981;28;20492;-81
2022/01/05 11:25:37;;;;;;;14.95;10.18;;;;;;;;;;5033377;28;20048;-81
2022/01/05 11:28:10;;;;;;;18.52;8.98;;;;;;;;;;5033346;28;20121;-79
2022/01/05 11:30:37;;;;;;;15.65;9.07;;;;;;;;;;5033076;28;20045;-79
2022/01/05 11:33:36;;;;;;;13.90;9.10;;;;;;;;;;5032035;28;20037;-76
2022/01/05 11:36:06;;;;;;;14.80;9.38;;;;;;;;;;5032166;28;20057;-79
2022/01/05 11:39:19;;;;;;;14.98;9.38;;;;;;;;;;5033228;28;20048;-80
2022/01/05 11:42:15;;;;;;;16.77;10.30;;;;;;;;;;5031929;28;20144;-79
2022/01/05 11:44:45;;;;;;;13.77;9.00;;;;;;;;;;5031707;28;20037;-79
2022/01/05 11:50:27;;;;;;;13.48;8.32;;;;;;;;;;5034272;28;20065;-79
2022/01/05 11:52:58;;;;;;;14.32;9.23;;;;;;;;;;5033782;28;20033;-78
2022/01/05 11:59:03;;;;;;;13.73;9.02;;;;;;;;;;5032145;28;20045;-79
2022/01/05 12:01:37;;;;;;;14.25;9.30;;;;;;;;;;5034791;28;20492;-78
2022/01/05 12:04:13;;;;;;;12.45;8.57;;;;;;;;;;5041085;28;20037;-78
2022/01/05 12:06:44;;;;;;;14.80;8.52;;;;;;;;;;5040299;28;20041;-79
2022/01/05 12:09:22;;;;;;;14.43;9.20;;;;;;;;;;5038805;28;20492;-78
2022/01/05 12:11:55;;;;;;;15.63;8.43;;;;;;;;;;5037921;28;20142;-78
2022/01/05 12:14:23;;;;;;;12.77;8.15;;;;;;;;;;5037945;28;20081;-78
2022/01/05 12:17:02;;;;;;;11.68;7.40;;;;;;;;;;5038264;28;20038;-79
2022/01/05 12:19:44;;;;;;;14.98;8.43;;;;;;;;;;5036900;28;20551;-79
2022/01/05 12:22:21;;;;;;;13.55;8.02;;;;;;;;;;5039892;28;20080;-79
2022/01/05 12:24:55;;;;;;;11.20;8.05;;;;;;;;;;5040210;28;20038;-79
2022/01/05 12:27:32;;;;;;;12.43;8.07;;;;;;;;;;5038833;28;20041;-78
2022/01/05 12:30:19;;;;;;;11.35;7.90;;;;;;;;;;5039005;28;20052;-79
2022/01/05 12:32:59;;;;;;;12.23;8.48;;;;;;;;;;5038768;28;20515;-79
2022/01/05 12:35:42;;;;;;;14.50;7.65;;;;;;;;;;5038439;28;20381;-79
2022/01/05 12:38:29;;;;;;;13.07;7.68;;;;;;;;;;5036169;28;20077;-79
2022/01/05 12:40:59;;;;;;;12.52;7.82;;;;;;;;;;5037438;28;20099;-79
2022/01/05 12:43:35;;;;;;;11.10;7.90;;;;;;;;;;5039034;28;20496;-79
2022/01/05 12:46:06;;;;;;;10.43;6.70;;;;;;;;;;5040597;28;20037;-79
2022/01/05 12:48:36;;;;;;;11.02;7.20;;;;;;;;;;5037639;28;20116;-79
2022/01/05 12:51:12;;;;;;;11.75;7.43;;;;;;;;;;5036995;28;20120;-79
2022/01/05 12:53:53;;;;;;;12.93;7.90;;;;;;;;;;5040906;28;20488;-79
2022/01/05 12:56:24;;;;;;;21.20;14.18;;;;;;;;;;5038073;28;20064;-79
2022/01/05 12:58:52;;;;;;;16.85;8.70;;;;;;;;;;5035080;28;20072;-79
2022/01/05 13:01:29;;;;;;;11.73;7.13;;;;;;;;;;5036281;28;20050;-79
2022/01/05 13:03:58;;;;;;;9.77;7.13;;;;;;;;;;5035365;28;20046;-79
2022/01/05 13:06:29;;;;;;;10.55;6.78;;;;;;;;;;5038747;28;20045;-79
2022/01/05 13:09:06;;;;;;;11.50;7.45;;;;;;;;;;5036705;28;20383;-79
2022/01/05 13:11:40;;;;;;;8.70;6.68;;;;;;;;;;5037930;28;20037;-78
2022/01/05 13:14:10;;;;;;;14.20;7.23;;;;;;;;;;5041867;28;20034;-79
2022/01/05 13:16:42;;;;;;;11.68;6.82;;;;;;;;;;5042352;28;20421;-79
2022/01/05 13:19:28;;;;;;;11.73;7.10;;;;;;;;;;5041022;28;20050;-79
2022/01/05 13:21:59;;;;;;;12.18;7.15;;;;;;;;;;5041743;28;20508;-79
2022/01/05 13:24:42;;;;;;;11.68;7.38;;;;;;;;;;5041180;28;20041;-79
2022/01/05 13:27:13;;;;;;;10.07;6.78;;;;;;;;;;5043096;28;20037;-79
2022/01/05 13:29:47;;;;;;;11.40;7.90;;;;;;;;;;5042833;28;20104;-80
2022/01/05 13:32:18;;;;;;;9.85;7.45;;;;;;;;;;5043318;28;20075;-79
2022/01/05 13:34:48;;;;;;;13.35;9.82;;;;;;;;;;5038829;28;20132;-79
2022/01/05 13:37:37;;;;;;;10.18;7.50;;;;;;;;;;5034265;28;20549;-79
2022/01/05 13:40:10;;;;;;;13.80;8.20;;;;;;;;;;5015537;28;20046;-79
2022/01/05 13:42:40;;;;;;;14.43;8.30;;;;;;;;;;5013608;28;20137;-79
2022/01/05 13:45:17;;;;;;;14.35;8.30;;;;;;;;;;5015123;28;20042;-79
2022/01/05 13:47:49;;;;;;;13.52;8.65;;;;;;;;;;5015107;28;20057;-79
2022/01/05 13:50:19;;;;;;;12.95;8.45;;;;;;;;;;5015200;28;20077;-79
2022/01/05 13:52:55;;;;;;;12.82;9.02;;;;;;;;;;5013591;28;20108;-79
2022/01/05 13:55:35;;;;;;;12.15;7.70;;;;;;;;;;5015761;28;20110;-79
2022/01/05 13:58:16;;;;;;;15.35;8.40;;;;;;;;;;5015118;28;20053;-79
2022/01/05 14:01:11;;;;;;;12.55;8.85;;;;;;;;;;5013217;28;20125;-79
2022/01/05 14:03:41;;;;;;;16.53;10.70;;;;;;;;;;5013869;28;20050;-79
2022/01/05 14:06:27;;;;;;;24.27;12.52;;;;;;;;;;5013637;28;20286;-79
2022/01/05 14:09:04;;;;;;;25.25;14.52;;;;;;;;;;5015117;28;20448;-79
2022/01/05 14:11:36;;;;;;;20.08;12.57;;;;;;;;;;5014828;28;20042;-79
2022/01/05 14:14:08;;;;;;;21.77;13.43;;;;;;;;;;5014459;28;20034;-80
2022/01/05 14:16:46;;;;;;;24.83;13.25;;;;;;;;;;5014352;28;20065;-80
2022/01/05 14:22:32;;;;;;;18.38;10.05;;;;;;;;;;5014049;28;20372;-79
2022/01/05 14:25:24;;;;;;;18.95;10.35;;;;;;;;;;5012274;28;20110;-79
2022/01/05 14:27:53;;;;;;;15.10;9.27;;;;;;;;;;5014552;28;20037;-79
2022/01/05 14:30:31;;;;;;;16.02;9.63;;;;;;;;;;5014386;28;20049;-79
2022/01/05 14:33:27;;;;;;;12.45;8.88;;;;;;;;;;5014253;28;20092;-79
2022/01/05 14:36:03;;;;;;;25.10;9.25;;;;;;;;;;5013196;28;20148;-79
2022/01/05 14:38:50;;;;;;;12.18;8.77;;;;;;;;;;5014507;28;20459;-79
2022/01/05 14:41:20;;;;;;;17.80;10.93;;;;;;;;;;5014155;28;20044;-78
2022/01/05 14:44:11;;;;;;;20.83;12.93;;;;;;;;;;5013639;28;20042;-78
2022/01/05 14:46:47;;;;;;;23.13;15.95;;;;;;;;;;5019377;28;20479;-79
2022/01/05 14:49:19;;;;;;;27.58;17.05;;;;;;;;;;5032526;28;20605;-78
2022/01/05 14:51:52;;;;;;;35.63;23.88;;;;;;;;;;5033927;28;20124;-78
2022/01/05 14:54:27;;;;;;;54.67;32.40;;;;;;;;;;5033928;28;20052;-76
2022/01/05 14:56:56;;;;;;;51.85;33.80;;;;;;;;;;5031854;28;20088;-76
2022/01/05 14:59:28;;;;;;;40.17;27.08;;;;;;;;;;5033394;28;20045;-76
2022/01/05 15:02:01;;;;;;;30.95;19.00;;;;;;;;;;5033756;28;20506;-76
2022/01/05 15:04:29;;;;;;;36.67;21.08;;;;;;;;;;5033022;28;20041;-77
2022/01/05 15:07:07;;;;;;;43.63;23.92;;;;;;;;;;5033484;28;20067;-76
2022/01/05 15:10:00;;;;;;;33.65;22.38;;;;;;;;;;5031978;28;20045;-72
2022/01/05 15:12:30;;;;;;;29.65;18.77;;;;;;;;;;5033206;28;20069;-73
2022/01/05 15:15:23;;;;;;;31.45;20.65;;;;;;;;;;5033555;28;20041;-73
2022/01/05 15:18:16;;;;;;;28.17;17.05;;;;;;;;;;5033649;28;20030;-73
2022/01/05 15:20:49;;;;;;;26.50;18.33;;;;;;;;;;5033495;28;20118;-73
2022/01/05 15:23:16;;;;;;;25.98;16.58;;;;;;;;;;5064485;28;20045;-73
2022/01/05 15:25:45;;;;;;;75.38;43.53;;;;;;;;;;5031509;28;20411;-75
2022/01/05 15:28:13;;;;;;;46.97;34.40;;;;;;;;;;5027412;28;20048;-73
2022/01/05 15:30:40;;;;;;;57.67;39.63;;;;;;;;;;5012862;28;20045;-74
2022/01/05 15:33:08;;;;;;;56.22;39.88;;;;;;;;;;5035453;28;20037;-74
2022/01/05 15:35:36;;;;;;;187.90;102.85;;;;;;;;;;5029961;28;20046;-73
2022/01/05 15:38:07;;;;;;;174.70;98.13;;;;;;;;;;5032363;28;20128;-73
2022/01/05 15:40:35;;;;;;;129.30;75.68;;;;;;;;;;5032887;28;20042;-73
2022/01/05 15:43:02;;;;;;;126.20;70.18;;;;;;;;;;5028319;28;20041;-73
2022/01/05 15:45:30;;;;;;;210.60;105.25;;;;;;;;;;5019884;28;20132;-73